Time;durP1;ratioP1;P1;durP2;ratioP2;P2;SDS_P1;SDS_P2;PMS_P1;PMS_P2;Temp;Humidity;BMP_temperature;BMP_pressure;BME280_temperature;BME280_humidity;BME280_pressure;Samples;Min_cycle;Max_cycle;Signal;HPM_P1;HPM_P2
2022/03/11 00:01:16;;;;;;;15.60;6.73;;;2.10;99.90;;;;;;5067794;28;20219;-73
2022/03/11 00:03:41;;;;;;;13.67;6.73;;;2.10;99.90;;;;;;5071506;28;20218;-74
2022/03/11 00:06:07;;;;;;;14.30;7.20;;;2.10;99.90;;;;;;5074420;28;20199;-74
2022/03/11 00:08:33;;;;;;;12.90;6.17;;;2.10;99.90;;;;;;5073524;28;20201;-73
2022/03/11 00:10:58;;;;;;;10.07;5.53;;;2.10;99.90;;;;;;5074762;28;20179;-73
2022/03/11 00:13:24;;;;;;;15.03;7.80;;;2.00;99.90;;;;;;5086375;28;20374;-74
2022/03/11 00:15:50;;;;;;;12.23;7.40;;;2.00;99.90;;;;;;5075361;23;20224;-73
2022/03/11 00:18:16;;;;;;;12.47;6.43;;;2.00;99.90;;;;;;5034472;28;21072;-74
2022/03/11 00:20:41;;;;;;;12.93;7.27;;;2.00;99.90;;;;;;5034943;28;20302;-74
2022/03/11 00:23:07;;;;;;;11.07;5.83;;;2.00;99.90;;;;;;5050418;28;20189;-73
2022/03/11 00:25:33;;;;;;;13.07;7.10;;;1.90;99.90;;;;;;5041382;28;20208;-74
2022/03/11 00:28:01;;;;;;;16.13;7.30;;;1.90;99.90;;;;;;5034354;28;20216;-74
2022/03/11 00:30:28;;;;;;;15.93;7.87;;;1.90;99.90;;;;;;5052436;28;20200;-74
2022/03/11 00:32:53;;;;;;;14.30;7.10;;;1.90;99.90;;;;;;5052646;28;20228;-74
2022/03/11 00:35:20;;;;;;;15.23;6.60;;;1.80;99.90;;;;;;5036403;28;20201;-74
2022/03/11 00:37:45;;;;;;;10.80;7.00;;;1.80;99.90;;;;;;5033109;28;20690;-74
2022/03/11 00:40:13;;;;;;;13.87;6.93;;;1.80;99.90;;;;;;5032208;28;20281;-74
2022/03/11 00:42:39;;;;;;;13.97;6.87;;;1.80;99.90;;;;;;5032765;28;20215;-73
2022/03/11 00:45:05;;;;;;;14.23;7.63;;;1.70;99.90;;;;;;5014762;28;20212;-74
2022/03/11 00:47:30;;;;;;;17.27;7.67;;;1.70;99.90;;;;;;5032566;28;20165;-74
2022/03/11 00:49:56;;;;;;;12.90;6.47;;;1.70;99.90;;;;;;5032573;28;20196;-76
2022/03/11 00:52:21;;;;;;;13.53;6.97;;;1.70;99.90;;;;;;5032617;28;20220;-74
2022/03/11 00:54:47;;;;;;;14.43;7.73;;;1.70;99.90;;;;;;5014801;28;20223;-74
2022/03/11 00:57:12;;;;;;;16.60;8.23;;;1.60;99.90;;;;;;5014892;28;20201;-74
2022/03/11 00:59:38;;;;;;;12.67;7.50;;;1.60;99.90;;;;;;5031785;28;20212;-74
2022/03/11 01:02:03;;;;;;;15.97;7.27;;;1.60;99.90;;;;;;5015119;28;20216;-72
2022/03/11 01:04:29;;;;;;;15.33;6.70;;;1.60;99.90;;;;;;5039815;28;20215;-73
2022/03/11 01:06:54;;;;;;;14.97;6.90;;;1.60;99.90;;;;;;5032678;28;20212;-72
2022/03/11 01:09:20;;;;;;;12.93;6.30;;;1.60;99.90;;;;;;5031585;28;20204;-73
2022/03/11 01:11:45;;;;;;;13.10;6.80;;;1.50;99.90;;;;;;5034033;28;20201;-73
2022/03/11 01:14:11;;;;;;;11.37;7.27;;;1.50;99.90;;;;;;5052004;28;20197;-72
2022/03/11 01:16:36;;;;;;;14.00;7.73;;;1.50;99.90;;;;;;5050744;28;20257;-73
2022/03/11 01:19:02;;;;;;;12.13;7.03;;;1.40;99.90;;;;;;5033342;28;20231;-73
2022/03/11 01:21:27;;;;;;;16.27;7.37;;;1.40;99.90;;;;;;5050569;28;20221;-72
2022/03/11 01:23:55;;;;;;;15.77;7.47;;;1.40;99.90;;;;;;5014010;28;20655;-72
2022/03/11 01:26:21;;;;;;;12.77;6.67;;;1.40;99.90;;;;;;5013909;28;20191;-72
2022/03/11 01:28:47;;;;;;;13.97;6.73;;;1.40;99.90;;;;;;5031718;28;20186;-72
2022/03/11 01:31:13;;;;;;;13.37;7.67;;;1.40;99.90;;;;;;5046969;28;20204;-73
2022/03/11 01:33:39;;;;;;;13.47;6.10;;;1.40;99.90;;;;;;5048536;28;20199;-73
2022/03/11 01:36:06;;;;;;;15.17;7.90;;;1.40;99.90;;;;;;5013898;28;20300;-74
2022/03/11 01:38:32;;;;;;;15.00;7.60;;;1.30;99.90;;;;;;5013201;28;20177;-74
2022/03/11 01:40:57;;;;;;;16.80;7.43;;;1.30;99.90;;;;;;5032063;28;20204;-74
2022/03/11 01:43:23;;;;;;;13.87;7.17;;;1.30;99.90;;;;;;5013688;28;20218;-74
2022/03/11 01:45:48;;;;;;;12.43;7.03;;;1.30;99.90;;;;;;5031499;28;20287;-74
2022/03/11 01:48:14;;;;;;;17.53;7.83;;;1.30;99.90;;;;;;5030800;28;20200;-74
2022/03/11 01:50:40;;;;;;;16.93;8.47;;;1.40;99.90;;;;;;5031313;28;20737;-74
2022/03/11 01:53:11;;;;;;;14.50;7.87;;;1.30;99.90;;;;;;5014237;28;20183;-74
2022/03/11 01:55:37;;;;;;;14.20;7.03;;;1.40;99.90;;;;;;5013198;28;20214;-73
2022/03/11 01:58:05;;;;;;;19.93;7.93;;;1.30;99.90;;;;;;5013008;28;20209;-74
2022/03/11 02:00:35;;;;;;;16.83;7.53;;;1.30;99.90;;;;;;5030970;28;20222;-74
2022/03/11 02:03:00;;;;;;;15.37;7.60;;;1.20;99.90;;;;;;5035963;28;20308;-76
2022/03/11 02:05:26;;;;;;;14.00;7.90;;;1.20;99.90;;;;;;5033618;28;20686;-74
2022/03/11 02:07:53;;;;;;;15.90;7.60;;;1.10;99.90;;;;;;5030016;28;20215;-74
2022/03/11 02:10:18;;;;;;;15.60;8.07;;;1.10;99.90;;;;;;5038501;28;20645;-74
2022/03/11 02:12:44;;;;;;;15.50;8.43;;;1.10;99.90;;;;;;5051069;28;20279;-74
2022/03/11 02:15:10;;;;;;;12.93;7.50;;;1.00;99.90;;;;;;5043792;28;20224;-74
2022/03/11 02:17:36;;;;;;;15.50;7.87;;;1.00;99.90;;;;;;5033064;28;20207;-76
2022/03/11 02:20:03;;;;;;;16.97;8.37;;;0.90;99.90;;;;;;5045094;28;20234;-74
2022/03/11 02:22:34;;;;;;;13.23;7.63;;;0.90;99.90;;;;;;5030575;28;20208;-73
2022/03/11 02:25:00;;;;;;;13.17;7.27;;;0.90;99.90;;;;;;5033013;28;20712;-73
2022/03/11 02:27:25;;;;;;;16.87;7.90;;;0.80;99.90;;;;;;5032193;28;20223;-74
2022/03/11 02:29:51;;;;;;;12.90;7.87;;;0.80;99.90;;;;;;5032349;28;20231;-74
2022/03/11 02:32:16;;;;;;;12.77;7.37;;;0.80;99.90;;;;;;5043635;28;20184;-74
2022/03/11 02:34:42;;;;;;;16.00;7.93;;;0.70;99.90;;;;;;5037885;28;20201;-74
2022/03/11 02:37:10;;;;;;;15.63;7.77;;;0.90;99.90;;;;;;5030860;28;20261;-74
2022/03/11 02:39:36;;;;;;;14.83;7.77;;;0.80;99.90;;;;;;5029830;28;20223;-73
2022/03/11 02:42:04;;;;;;;16.20;7.40;;;0.70;99.90;;;;;;5030301;28;20210;-75
2022/03/11 02:44:31;;;;;;;17.13;8.60;;;0.70;99.90;;;;;;5030359;28;20226;-75
2022/03/11 02:46:59;;;;;;;14.00;8.17;;;0.70;99.90;;;;;;5013472;28;20197;-74
2022/03/11 02:49:26;;;;;;;16.97;8.27;;;0.70;99.90;;;;;;5012655;28;20216;-74
2022/03/11 02:51:51;;;;;;;23.17;8.73;;;0.60;99.90;;;;;;5050464;28;20286;-74
2022/03/11 02:54:17;;;;;;;16.70;8.63;;;0.60;99.90;;;;;;5050066;28;20295;-74
2022/03/11 02:56:42;;;;;;;17.67;8.93;;;0.60;99.90;;;;;;5049758;28;20203;-76
2022/03/11 02:59:07;;;;;;;15.23;7.93;;;0.70;99.90;;;;;;5048292;28;20170;-74
2022/03/11 03:01:33;;;;;;;16.80;8.57;;;0.60;99.90;;;;;;5022050;28;20215;-74
2022/03/11 03:03:58;;;;;;;21.23;8.47;;;0.60;99.90;;;;;;5019749;28;20196;-75
2022/03/11 03:06:24;;;;;;;15.57;7.73;;;0.50;99.90;;;;;;5029377;28;20303;-74
2022/03/11 03:08:49;;;;;;;19.33;9.17;;;0.50;99.90;;;;;;5049539;28;20574;-74
2022/03/11 03:11:15;;;;;;;17.20;8.67;;;0.50;99.90;;;;;;5050749;28;20671;-75
2022/03/11 03:13:40;;;;;;;24.83;8.43;;;0.50;99.90;;;;;;5050041;28;20282;-73
2022/03/11 03:16:08;;;;;;;18.33;8.37;;;0.50;99.90;;;;;;5050122;28;20227;-74
2022/03/11 03:18:34;;;;;;;16.90;9.73;;;0.40;99.90;;;;;;5049084;28;20589;-74
2022/03/11 03:21:00;;;;;;;17.90;8.27;;;0.40;99.90;;;;;;5032138;28;20215;-75
2022/03/11 03:23:26;;;;;;;17.50;8.20;;;0.40;99.90;;;;;;5048597;28;20235;-74
2022/03/11 03:25:53;;;;;;;18.93;9.00;;;0.40;99.90;;;;;;5050645;28;20604;-74
2022/03/11 03:28:19;;;;;;;17.73;8.53;;;0.40;99.90;;;;;;5049233;28;20209;-74
2022/03/11 03:30:44;;;;;;;17.00;8.20;;;0.40;99.90;;;;;;5049824;28;20249;-75
2022/03/11 03:33:10;;;;;;;16.60;8.53;;;0.50;99.90;;;;;;5049669;28;20625;-74
2022/03/11 03:35:35;;;;;;;14.00;8.47;;;0.50;99.90;;;;;;5031108;28;20200;-74
2022/03/11 03:38:01;;;;;;;20.80;8.73;;;0.40;99.90;;;;;;5012615;28;20638;-75
2022/03/11 03:40:26;;;;;;;15.70;7.97;;;0.30;99.90;;;;;;5033601;28;20216;-74
2022/03/11 03:42:52;;;;;;;15.43;7.93;;;0.30;99.90;;;;;;5039409;28;20294;-73
2022/03/11 03:45:17;;;;;;;17.87;8.83;;;0.30;99.90;;;;;;5044995;28;20215;-73
2022/03/11 03:47:43;;;;;;;17.83;8.93;;;0.30;99.90;;;;;;5037557;28;20246;-72
2022/03/11 03:50:09;;;;;;;17.87;7.90;;;0.30;99.90;;;;;;5048541;28;20175;-73
2022/03/11 03:52:34;;;;;;;16.23;8.33;;;0.30;99.90;;;;;;5043167;28;20231;-73
2022/03/11 03:55:00;;;;;;;19.77;9.00;;;0.20;99.90;;;;;;5015502;28;20208;-74
2022/03/11 03:57:27;;;;;;;15.90;8.80;;;0.20;99.90;;;;;;5042184;28;20212;-73
2022/03/11 03:59:52;;;;;;;16.60;8.23;;;0.30;99.90;;;;;;5048324;28;20223;-74
2022/03/11 04:02:18;;;;;;;16.07;8.43;;;0.30;99.90;;;;;;5041773;28;20699;-72
2022/03/11 04:04:43;;;;;;;14.43;8.20;;;0.20;99.90;;;;;;5045131;28;20610;-74
2022/03/11 04:07:09;;;;;;;19.90;8.97;;;0.20;99.90;;;;;;5045062;28;20207;-73
2022/03/11 04:09:35;;;;;;;18.33;9.37;;;0.20;99.90;;;;;;5042149;28;20216;-72
2022/03/11 04:12:00;;;;;;;17.67;9.33;;;0.10;99.90;;;;;;5041597;28;20232;-73
2022/03/11 04:14:27;;;;;;;18.10;8.43;;;0.20;99.90;;;;;;5041877;28;20213;-73
2022/03/11 04:16:52;;;;;;;15.93;8.13;;;0.10;99.90;;;;;;5044221;28;20545;-74
2022/03/11 04:19:18;;;;;;;19.83;7.93;;;0.00;99.90;;;;;;5022416;28;20211;-74
2022/03/11 04:21:43;;;;;;;17.53;8.23;;;0.00;99.90;;;;;;5041543;28;20216;-74
2022/03/11 04:24:13;;;;;;;22.07;8.73;;;0.00;99.90;;;;;;5030153;28;20213;-73
2022/03/11 04:26:43;;;;;;;16.03;8.53;;;-0.10;99.90;;;;;;5041688;28;20246;-74
2022/03/11 04:29:09;;;;;;;18.67;9.07;;;0.00;99.90;;;;;;5039400;28;20260;-75
2022/03/11 04:31:34;;;;;;;17.67;8.23;;;0.00;99.90;;;;;;5042395;28;20291;-74
2022/03/11 04:34:01;;;;;;;16.93;7.73;;;0.00;99.90;;;;;;5023282;28;20208;-74
2022/03/11 04:36:28;;;;;;;15.50;8.27;;;-0.10;99.90;;;;;;5041773;28;20713;-74
2022/03/11 04:38:53;;;;;;;14.80;8.77;;;-0.10;99.90;;;;;;5047497;28;20204;-74
2022/03/11 04:41:19;;;;;;;14.43;8.47;;;-0.20;99.90;;;;;;5040663;28;20725;-76
2022/03/11 04:43:45;;;;;;;20.13;9.03;;;-0.20;99.90;;;;;;5044392;28;20171;-74
2022/03/11 04:46:10;;;;;;;18.90;9.43;;;-0.20;99.90;;;;;;5034431;28;20796;-74
2022/03/11 04:48:36;;;;;;;21.10;9.23;;;-0.30;99.90;;;;;;5043312;28;20215;-75
2022/03/11 04:51:04;;;;;;;18.50;8.27;;;-0.20;99.90;;;;;;5042583;28;20199;-74
2022/03/11 04:53:30;;;;;;;19.40;8.93;;;-0.20;99.90;;;;;;5042673;28;20665;-74
2022/03/11 04:55:55;;;;;;;18.03;8.70;;;-0.30;99.90;;;;;;5041080;28;20184;-74
2022/03/11 04:58:21;;;;;;;18.97;8.10;;;-0.30;99.90;;;;;;5022032;28;20256;-73
2022/03/11 05:00:46;;;;;;;16.43;8.97;;;-0.30;99.90;;;;;;5043654;28;20207;-74
2022/03/11 05:03:12;;;;;;;16.63;9.17;;;-0.30;99.90;;;;;;5044226;28;20715;-73
2022/03/11 05:05:38;;;;;;;19.00;8.63;;;-0.40;99.90;;;;;;5023365;28;20237;-74
2022/03/11 05:08:03;;;;;;;15.77;8.57;;;-0.40;99.90;;;;;;5040372;28;20172;-75
2022/03/11 05:10:29;;;;;;;15.53;8.40;;;-0.40;99.90;;;;;;5038623;28;20719;-77
2022/03/11 05:12:54;;;;;;;20.03;9.10;;;-0.40;99.90;;;;;;5040509;28;20769;-73
2022/03/11 05:15:21;;;;;;;15.57;8.63;;;-0.40;99.90;;;;;;5040047;28;20306;-73
2022/03/11 05:17:46;;;;;;;15.93;8.13;;;-0.40;99.90;;;;;;5044496;28;20211;-72
2022/03/11 05:20:12;;;;;;;17.73;8.77;;;-0.40;99.90;;;;;;5040246;28;20192;-72
2022/03/11 05:22:38;;;;;;;17.87;9.17;;;-0.40;99.90;;;;;;5042367;28;20201;-73
2022/03/11 05:25:04;;;;;;;14.57;8.30;;;-0.40;99.90;;;;;;5028081;28;20265;-72
2022/03/11 05:27:29;;;;;;;19.77;9.07;;;-0.50;99.90;;;;;;5041194;28;20217;-73
2022/03/11 05:29:54;;;;;;;15.27;8.90;;;-0.50;99.90;;;;;;5042679;28;20206;-73
2022/03/11 05:32:20;;;;;;;17.43;9.87;;;-0.50;99.90;;;;;;5043504;28;20203;-73
2022/03/11 05:34:47;;;;;;;18.50;9.17;;;-0.50;99.90;;;;;;5035627;28;20203;-73
2022/03/11 05:37:12;;;;;;;16.67;7.57;;;-0.50;99.90;;;;;;5036449;28;20618;-76
2022/03/11 05:39:38;;;;;;;16.20;7.73;;;-0.50;99.90;;;;;;5021122;28;20208;-71
2022/03/11 05:42:04;;;;;;;15.50;8.03;;;-0.50;99.90;;;;;;5039876;28;20296;-73
2022/03/11 05:44:30;;;;;;;16.60;8.10;;;-0.50;99.90;;;;;;5022877;28;20203;-72
2022/03/11 05:46:55;;;;;;;18.87;8.27;;;-0.60;99.90;;;;;;5048329;28;20652;-74
2022/03/11 05:49:21;;;;;;;21.77;9.53;;;-0.60;99.90;;;;;;5042181;28;20242;-72
2022/03/11 05:51:47;;;;;;;17.87;8.70;;;-0.50;99.90;;;;;;5017088;28;20200;-73
2022/03/11 05:54:13;;;;;;;15.83;8.87;;;-0.50;99.90;;;;;;5042949;28;20238;-73
2022/03/11 05:56:39;;;;;;;15.23;9.00;;;-0.50;99.90;;;;;;5040568;28;20676;-73
2022/03/11 05:59:05;;;;;;;15.83;9.23;;;-0.40;99.90;;;;;;5044080;28;20186;-75
2022/03/11 06:01:31;;;;;;;15.63;8.57;;;-0.40;99.90;;;;;;5032303;28;20223;-74
2022/03/11 06:03:57;;;;;;;18.40;8.83;;;-0.40;99.90;;;;;;5031218;28;20200;-72
2022/03/11 06:06:22;;;;;;;18.57;8.43;;;-0.40;99.90;;;;;;5021483;28;20214;-73
2022/03/11 06:08:48;;;;;;;16.80;8.43;;;-0.40;99.90;;;;;;5034358;28;20739;-74
2022/03/11 06:11:13;;;;;;;21.53;9.50;;;-0.40;99.90;;;;;;5043220;28;20183;-74
2022/03/11 06:13:39;;;;;;;18.87;8.50;;;-0.40;99.90;;;;;;5040103;28;20394;-74
2022/03/11 06:16:05;;;;;;;16.67;7.90;;;0.80;99.90;;;;;;5022483;28;20233;-74
2022/03/11 06:18:30;;;;;;;20.70;8.90;;;3.30;99.90;;;;;;5020679;28;20217;-73
2022/03/11 06:20:56;;;;;;;17.80;9.30;;;4.50;99.90;;;;;;5038924;28;20274;-74
2022/03/11 06:23:22;;;;;;;25.80;9.00;;;4.70;99.90;;;;;;5021649;28;20682;-74
2022/03/11 06:25:48;;;;;;;18.43;8.40;;;5.20;99.90;;;;;;5042618;28;20198;-75
2022/03/11 06:28:14;;;;;;;15.10;8.60;;;5.70;99.90;;;;;;5049492;28;20207;-73
2022/03/11 06:30:39;;;;;;;17.67;8.63;;;5.90;99.90;;;;;;5050540;28;20212;-73
2022/03/11 06:33:06;;;;;;;17.73;8.50;;;6.70;99.90;;;;;;5050727;28;20227;-73
2022/03/11 06:35:32;;;;;;;19.43;8.50;;;6.40;99.90;;;;;;5050207;28;20230;-74
2022/03/11 06:37:58;;;;;;;18.40;8.67;;;7.80;99.90;;;;;;5050402;28;20172;-71
2022/03/11 06:40:23;;;;;;;19.07;9.30;;;8.10;98.30;;;;;;5050263;28;20202;-74
2022/03/11 06:42:50;;;;;;;16.47;9.60;;;8.20;97.10;;;;;;5032381;28;20208;-75
2022/03/11 06:45:16;;;;;;;19.87;9.17;;;9.50;95.80;;;;;;5050438;28;20294;-75
2022/03/11 06:47:42;;;;;;;15.37;8.93;;;10.20;93.20;;;;;;5032156;28;20211;-74
2022/03/11 06:50:09;;;;;;;20.13;9.53;;;8.70;93.80;;;;;;5049215;28;20176;-73
2022/03/11 06:52:35;;;;;;;17.93;9.50;;;8.20;94.50;;;;;;5032185;28;20692;-73
2022/03/11 06:55:01;;;;;;;16.97;9.63;;;9.00;93.90;;;;;;5045185;28;20219;-74
2022/03/11 06:57:26;;;;;;;16.47;8.40;;;8.30;93.60;;;;;;5043821;28;20640;-74
2022/03/11 06:59:52;;;;;;;21.67;9.03;;;8.90;93.30;;;;;;5051656;28;20217;-74
2022/03/11 07:02:18;;;;;;;18.17;9.77;;;8.90;92.20;;;;;;5026429;28;20242;-74
2022/03/11 07:04:44;;;;;;;16.73;9.60;;;8.60;92.20;;;;;;5033951;28;20237;-75
2022/03/11 07:07:10;;;;;;;21.83;10.50;;;8.80;92.20;;;;;;5050699;28;20207;-74
2022/03/11 07:09:35;;;;;;;20.33;9.90;;;9.10;91.10;;;;;;5031327;28;20721;-75
2022/03/11 07:12:03;;;;;;;16.83;8.57;;;8.70;91.00;;;;;;5050215;28;20290;-74
2022/03/11 07:14:29;;;;;;;15.10;8.20;;;8.30;91.10;;;;;;5054130;28;20229;-73
2022/03/11 07:16:56;;;;;;;16.27;9.50;;;7.90;91.50;;;;;;5054777;28;20191;-72
2022/03/11 07:19:23;;;;;;;18.30;10.17;;;6.40;92.50;;;;;;5053511;28;20219;-73
2022/03/11 07:21:49;;;;;;;19.13;9.73;;;6.80;93.00;;;;;;5054255;28;20229;-73
2022/03/11 07:24:15;;;;;;;22.67;9.73;;;6.80;92.60;;;;;;5036192;28;20211;-73
2022/03/11 07:26:40;;;;;;;19.27;9.77;;;6.70;92.70;;;;;;5053563;28;20219;-73
2022/03/11 07:29:06;;;;;;;18.20;8.83;;;7.10;92.70;;;;;;5044075;28;20205;-70
2022/03/11 07:31:32;;;;;;;19.23;9.40;;;7.50;93.40;;;;;;5051500;28;20215;-70
2022/03/11 07:33:58;;;;;;;17.60;9.97;;;7.90;93.10;;;;;;5050957;28;20207;-70
2022/03/11 07:36:24;;;;;;;22.47;9.77;;;7.30;92.70;;;;;;5047678;28;20203;-73
2022/03/11 07:38:50;;;;;;;20.23;10.07;;;7.80;92.00;;;;;;5045739;28;20685;-76
2022/03/11 07:41:16;;;;;;;19.73;9.80;;;8.10;90.90;;;;;;5048627;28;20207;-75
2022/03/11 07:43:44;;;;;;;21.03;9.93;;;8.10;90.50;;;;;;5047851;28;20214;-75
2022/03/11 07:46:10;;;;;;;18.50;9.60;;;8.20;89.60;;;;;;5047761;28;21501;-74
2022/03/11 07:48:36;;;;;;;18.33;9.40;;;7.60;90.40;;;;;;5029788;28;20302;-73
2022/03/11 07:51:02;;;;;;;18.97;9.53;;;7.50;90.60;;;;;;5047244;28;20298;-73
2022/03/11 07:53:27;;;;;;;20.70;9.77;;;8.00;90.50;;;;;;5047874;28;20255;-74
2022/03/11 07:55:53;;;;;;;16.60;9.17;;;8.60;88.10;;;;;;5046417;28;20189;-74
2022/03/11 07:58:21;;;;;;;17.20;9.07;;;7.20;89.30;;;;;;5047628;28;20206;-72
2022/03/11 08:00:53;;;;;;;19.87;9.20;;;7.60;90.10;;;;;;5043897;28;20210;-74
2022/03/11 08:03:19;;;;;;;20.67;9.73;;;7.30;88.90;;;;;;5044862;28;20202;-76
2022/03/11 08:05:45;;;;;;;23.30;12.77;;;6.80;90.20;;;;;;5047193;28;20230;-76
2022/03/11 08:08:11;;;;;;;15.87;9.27;;;6.90;91.30;;;;;;5048076;28;20178;-73
2022/03/11 08:10:38;;;;;;;19.90;9.27;;;7.90;90.20;;;;;;5047728;28;20222;-73
2022/03/11 08:13:06;;;;;;;16.23;9.13;;;8.30;88.20;;;;;;5033487;28;20210;-73
2022/03/11 08:15:32;;;;;;;17.43;9.33;;;7.50;87.90;;;;;;5031730;28;20248;-73
2022/03/11 08:17:58;;;;;;;22.07;9.10;;;7.50;90.00;;;;;;5044176;28;20314;-74
2022/03/11 08:20:23;;;;;;;19.33;9.63;;;7.90;86.60;;;;;;5043973;28;20262;-77
2022/03/11 08:22:50;;;;;;;22.97;9.50;;;7.70;87.00;;;;;;5048311;28;20762;-74
2022/03/11 08:25:16;;;;;;;21.67;9.30;;;7.00;87.40;;;;;;5030570;28;20233;-74
2022/03/11 08:27:41;;;;;;;19.97;8.43;;;7.60;88.40;;;;;;5043645;28;20249;-75
2022/03/11 08:30:09;;;;;;;18.23;8.73;;;7.50;86.30;;;;;;5041722;28;20210;-72
2022/03/11 08:32:34;;;;;;;16.03;7.90;;;6.60;86.00;;;;;;5046724;28;20187;-77
2022/03/11 08:35:00;;;;;;;16.10;8.63;;;6.60;87.70;;;;;;5030324;28;20195;-73
2022/03/11 08:37:25;;;;;;;17.70;8.63;;;6.80;88.10;;;;;;5029866;28;20206;-74
2022/03/11 08:39:51;;;;;;;16.27;8.47;;;7.70;87.40;;;;;;5044683;28;20259;-76
2022/03/11 08:42:17;;;;;;;17.10;9.07;;;7.10;85.50;;;;;;5041505;28;20270;-75
2022/03/11 08:44:43;;;;;;;17.37;9.23;;;6.60;86.30;;;;;;5045918;28;20225;-76
2022/03/11 08:47:09;;;;;;;18.87;9.33;;;7.20;86.70;;;;;;5046538;28;20619;-74
2022/03/11 08:49:34;;;;;;;17.87;9.67;;;7.50;86.10;;;;;;5045454;28;20287;-76
2022/03/11 08:52:00;;;;;;;20.53;8.47;;;7.00;86.30;;;;;;5030600;28;20288;-73
2022/03/11 08:54:26;;;;;;;14.10;8.53;;;7.10;86.10;;;;;;5027747;28;20221;-74
2022/03/11 08:56:54;;;;;;;17.77;9.43;;;6.60;85.70;;;;;;5041928;28;20208;-75
2022/03/11 08:59:21;;;;;;;17.10;9.10;;;6.90;86.70;;;;;;5040004;28;20182;-72
2022/03/11 09:01:49;;;;;;;17.53;8.53;;;6.70;86.20;;;;;;5033261;28;20280;-73
2022/03/11 09:04:15;;;;;;;17.73;8.37;;;6.50;86.90;;;;;;5039848;28;20325;-72
2022/03/11 09:06:40;;;;;;;16.77;9.07;;;6.80;87.60;;;;;;5046585;28;20654;-72
2022/03/11 09:09:06;;;;;;;16.27;9.10;;;7.00;86.60;;;;;;5030930;28;21042;-72
2022/03/11 09:11:32;;;;;;;18.53;8.57;;;6.50;85.90;;;;;;5026937;28;20187;-73
2022/03/11 09:13:58;;;;;;;19.70;8.30;;;6.30;85.80;;;;;;5014327;28;20264;-71
2022/03/11 09:16:23;;;;;;;16.80;8.20;;;5.80;86.20;;;;;;5038690;28;20294;-73
2022/03/11 09:18:49;;;;;;;19.13;9.60;;;5.80;87.40;;;;;;5041383;28;20586;-74
2022/03/11 09:21:15;;;;;;;18.70;9.60;;;5.90;87.00;;;;;;5015760;28;20987;-73
2022/03/11 09:23:41;;;;;;;19.87;9.13;;;5.80;86.50;;;;;;5050505;28;20209;-74
2022/03/11 09:26:06;;;;;;;16.50;8.70;;;6.20;87.40;;;;;;5043668;28;20802;-73
2022/03/11 09:28:32;;;;;;;16.67;8.77;;;6.30;87.10;;;;;;5032977;28;20213;-73
2022/03/11 09:30:58;;;;;;;19.37;8.83;;;6.40;87.30;;;;;;5033637;28;20717;-74
2022/03/11 09:33:24;;;;;;;17.33;8.57;;;5.70;86.90;;;;;;5047028;28;20228;-73
2022/03/11 09:35:49;;;;;;;16.67;8.80;;;5.60;87.10;;;;;;5049564;28;20215;-74
2022/03/11 09:38:15;;;;;;;15.60;7.80;;;5.60;87.90;;;;;;5051389;28;20192;-74
2022/03/11 09:40:43;;;;;;;21.63;9.53;;;5.50;88.60;;;;;;5051446;28;20217;-75
2022/03/11 09:43:11;;;;;;;16.70;8.33;;;5.40;89.40;;;;;;5051459;28;20216;-74
2022/03/11 09:45:37;;;;;;;19.80;9.73;;;5.20;88.50;;;;;;5051415;28;20747;-73
2022/03/11 09:48:03;;;;;;;16.53;7.83;;;5.40;88.60;;;;;;5050881;28;20237;-73
2022/03/11 09:50:29;;;;;;;26.53;9.93;;;5.30;88.00;;;;;;5033697;28;20200;-74
2022/03/11 09:52:55;;;;;;;17.83;9.10;;;5.60;88.20;;;;;;5046051;28;20171;-74
2022/03/11 09:55:21;;;;;;;19.10;9.13;;;5.60;87.40;;;;;;5051628;28;20349;-75
2022/03/11 09:57:55;;;;;;;16.70;8.07;;;5.70;88.20;;;;;;5082075;27;20575;-74
2022/03/11 10:00:20;;;;;;;18.07;8.90;;;5.80;87.40;;;;;;5067427;28;20691;-74
2022/03/11 10:02:46;;;;;;;15.33;8.63;;;5.90;88.10;;;;;;5069759;28;20210;-75
2022/03/11 10:05:13;;;;;;;15.37;8.20;;;5.90;86.90;;;;;;5069388;28;20673;-74
2022/03/11 10:07:38;;;;;;;15.73;8.40;;;6.00;85.60;;;;;;5060782;28;20278;-74
2022/03/11 10:10:16;;;;;;;14.80;8.73;;;6.00;86.10;;;;;;5057943;28;20230;-71
2022/03/11 10:12:44;;;;;;;19.30;9.10;;;6.10;89.00;;;;;;5056020;28;20688;-74
2022/03/11 10:15:10;;;;;;;17.03;8.23;;;6.40;90.30;;;;;;5054766;28;20244;-77
2022/03/11 10:17:39;;;;;;;16.40;9.27;;;6.50;88.10;;;;;;5059933;28;20208;-73
2022/03/11 10:20:07;;;;;;;14.60;8.73;;;6.60;87.20;;;;;;5067519;28;20187;-72
2022/03/11 10:22:33;;;;;;;19.67;9.03;;;7.10;88.20;;;;;;5067353;28;20214;-72
2022/03/11 10:25:07;;;;;;;15.37;9.03;;;6.60;86.00;;;;;;5067336;28;20307;-74
2022/03/11 10:27:33;;;;;;;17.33;9.20;;;6.10;86.00;;;;;;5063503;28;20230;-71
2022/03/11 10:30:14;;;;;;;15.37;8.67;;;6.10;86.50;;;;;;5060911;28;20214;-74
2022/03/11 10:32:50;;;;;;;18.70;9.10;;;6.00;84.70;;;;;;5067016;28;20214;-73
2022/03/11 10:35:18;;;;;;;15.20;9.10;;;5.80;85.60;;;;;;5060856;28;20204;-76
2022/03/11 10:38:20;;;;;;;14.87;8.40;;;5.90;86.70;;;;;;5066881;28;20230;-72
2022/03/11 10:40:51;;;;;;;19.03;8.67;;;5.80;85.20;;;;;;5036559;28;20222;-75
2022/03/11 10:43:23;;;;;;;15.87;9.43;;;5.90;85.20;;;;;;5050585;28;20736;-73
2022/03/11 10:45:52;;;;;;;20.23;8.80;;;6.10;85.60;;;;;;5058551;28;20293;-73
2022/03/11 10:48:19;;;;;;;15.47;7.83;;;6.40;86.30;;;;;;5057896;28;20218;-71
2022/03/11 10:50:45;;;;;;;18.77;7.97;;;6.30;83.90;;;;;;5054993;28;20218;-73
2022/03/11 10:53:12;;;;;;;16.97;8.63;;;6.50;83.30;;;;;;5055570;28;20256;-73
2022/03/11 10:55:41;;;;;;;19.43;7.80;;;6.30;82.60;;;;;;5061305;28;20221;-73
2022/03/11 10:58:07;;;;;;;18.70;8.33;;;6.10;82.70;;;;;;5057033;28;20209;-71
2022/03/11 11:00:39;;;;;;;15.10;8.37;;;6.20;83.20;;;;;;5055119;28;20348;-70
2022/03/11 11:03:09;;;;;;;14.07;7.30;;;6.40;83.00;;;;;;5056937;28;20265;-71
2022/03/11 11:05:36;;;;;;;15.73;8.30;;;6.40;83.50;;;;;;5057429;28;20204;-72
2022/03/11 11:08:04;;;;;;;17.57;9.37;;;6.80;83.40;;;;;;5059563;28;20189;-72
2022/03/11 11:10:32;;;;;;;12.13;8.07;;;6.90;81.90;;;;;;5053410;28;20209;-72
2022/03/11 11:12:58;;;;;;;21.63;7.83;;;6.80;81.60;;;;;;5047953;28;20213;-73
2022/03/11 11:15:24;;;;;;;25.07;8.40;;;6.50;79.70;;;;;;5041908;28;20583;-72
2022/03/11 11:17:51;;;;;;;17.60;7.80;;;6.30;79.50;;;;;;5043308;28;20253;-72
2022/03/11 11:20:24;;;;;;;17.93;7.27;;;6.30;79.00;;;;;;5044732;28;20269;-70
2022/03/11 11:22:52;;;;;;;11.37;7.13;;;6.40;78.80;;;;;;5043854;28;20600;-71
2022/03/11 11:25:21;;;;;;;17.70;8.07;;;6.60;79.40;;;;;;5044643;28;20220;-72
2022/03/11 11:27:47;;;;;;;20.37;8.27;;;6.70;79.70;;;;;;5044961;28;20223;-72
2022/03/11 11:30:18;;;;;;;12.43;7.60;;;6.80;80.40;;;;;;5040707;28;20285;-72
2022/03/11 11:32:45;;;;;;;13.37;7.97;;;7.10;80.20;;;;;;5045296;28;20217;-74
2022/03/11 11:35:25;;;;;;;18.20;7.33;;;6.90;78.90;;;;;;5045285;28;20303;-79
2022/03/11 11:37:51;;;;;;;14.87;7.93;;;6.90;78.40;;;;;;5043085;28;20706;-74
2022/03/11 11:40:18;;;;;;;14.53;6.67;;;7.00;78.50;;;;;;5059226;28;20214;-75
2022/03/11 11:43:28;;;;;;;16.47;8.00;;;7.10;77.50;;;;;;5063404;28;20220;-75
2022/03/11 11:46:05;;;;;;;15.57;7.47;;;7.00;77.70;;;;;;5040883;28;20708;-75
2022/03/11 11:48:42;;;;;;;21.03;7.43;;;7.00;77.00;;;;;;5040282;28;20268;-70
2022/03/11 11:51:11;;;;;;;21.07;7.20;;;6.90;76.50;;;;;;5045622;28;20325;-71
2022/03/11 11:53:42;;;;;;;12.70;6.97;;;6.80;76.70;;;;;;5042554;28;20282;-72
2022/03/11 11:56:27;;;;;;;15.53;7.00;;;6.90;77.00;;;;;;5043472;28;20222;-72
2022/03/11 11:58:53;;;;;;;11.37;6.33;;;7.00;76.60;;;;;;5044223;28;20209;-71
2022/03/11 12:01:48;;;;;;;14.27;7.43;;;7.30;77.50;;;;;;5059464;28;20355;-69
2022/03/11 12:04:34;;;;;;;15.27;7.37;;;7.20;78.40;;;;;;5043611;28;20686;-73
2022/03/11 12:07:13;;;;;;;11.87;7.17;;;7.30;77.70;;;;;;5032849;28;20219;-71
2022/03/11 12:09:39;;;;;;;15.27;7.60;;;7.40;78.00;;;;;;5032936;28;20223;-71
2022/03/11 12:12:05;;;;;;;12.90;7.03;;;7.60;77.70;;;;;;5043661;28;20628;-72
2022/03/11 12:14:30;;;;;;;14.97;7.20;;;7.40;76.50;;;;;;5041840;28;20238;-70
2022/03/11 12:17:05;;;;;;;16.27;7.17;;;7.30;76.80;;;;;;5055300;22;20305;-72
2022/03/11 12:19:38;;;;;;;13.53;7.63;;;7.60;77.00;;;;;;5041400;28;20310;-73
2022/03/11 12:22:29;;;;;;;13.37;6.73;;;7.80;76.80;;;;;;5041182;28;20261;-74
2022/03/11 12:25:05;;;;;;;14.60;5.87;;;7.70;73.40;;;;;;5035912;28;20218;-73
2022/03/11 12:28:00;;;;;;;12.30;5.70;;;7.80;71.70;;;;;;5020406;28;20212;-74
2022/03/11 12:30:27;;;;;;;13.97;6.40;;;7.70;71.90;;;;;;5024659;28;20291;-76
2022/03/11 12:32:53;;;;;;;16.10;6.37;;;7.60;71.70;;;;;;5036838;28;20209;-75
2022/03/11 12:35:20;;;;;;;13.87;6.00;;;7.60;71.50;;;;;;5021557;28;20172;-76
2022/03/11 12:37:45;;;;;;;13.10;5.77;;;7.70;70.90;;;;;;5021362;28;20216;-77
2022/03/11 12:40:11;;;;;;;10.83;5.30;;;7.80;70.00;;;;;;5028003;28;20716;-76
2022/03/11 12:42:42;;;;;;;14.10;6.50;;;7.90;69.70;;;;;;5027402;28;20208;-76
2022/03/11 12:45:08;;;;;;;12.40;6.27;;;8.00;69.20;;;;;;5025230;28;20208;-75